sensor_id;sensor_type;location;lat;lon;timestamp;P1;durP1;ratioP1;P2;durP2;ratioP2
20042;SDS011;10182;52.896;6.496;2022-09-28T00:03:32;15.70;;;11.27;;
20042;SDS011;10182;52.896;6.496;2022-09-28T00:08:34;15.23;;;11.67;;
20042;SDS011;10182;52.896;6.496;2022-09-28T00:13:38;14.73;;;12.53;;
20042;SDS011;10182;52.896;6.496;2022-09-28T00:18:40;15.87;;;13.57;;
20042;SDS011;10182;52.896;6.496;2022-09-28T00:23:42;16.03;;;13.67;;
20042;SDS011;10182;52.896;6.496;2022-09-28T00:29:00;16.40;;;13.30;;
20042;SDS011;10182;52.896;6.496;2022-09-28T00:34:02;21.53;;;16.07;;
20042;SDS011;10182;52.896;6.496;2022-09-28T00:39:06;23.03;;;16.53;;
20042;SDS011;10182;52.896;6.496;2022-09-28T00:49:39;19.80;;;15.93;;
20042;SDS011;10182;52.896;6.496;2022-09-28T00:54:44;21.30;;;16.67;;
20042;SDS011;10182;52.896;6.496;2022-09-28T00:59:49;24.07;;;17.93;;
20042;SDS011;10182;52.896;6.496;2022-09-28T01:04:52;23.00;;;19.00;;
20042;SDS011;10182;52.896;6.496;2022-09-28T01:09:56;22.87;;;18.47;;
20042;SDS011;10182;52.896;6.496;2022-09-28T01:14:59;24.33;;;19.30;;
20042;SDS011;10182;52.896;6.496;2022-09-28T01:25:54;21.83;;;18.90;;
20042;SDS011;10182;52.896;6.496;2022-09-28T01:31:05;25.37;;;19.50;;
20042;SDS011;10182;52.896;6.496;2022-09-28T01:36:12;27.33;;;20.30;;
20042;SDS011;10182;52.896;6.496;2022-09-28T01:41:18;25.07;;;20.63;;
20042;SDS011;10182;52.896;6.496;2022-09-28T01:46:24;25.50;;;19.90;;
20042;SDS011;10182;52.896;6.496;2022-09-28T01:51:31;22.40;;;19.40;;
20042;SDS011;10182;52.896;6.496;2022-09-28T01:56:37;30.77;;;19.80;;
20042;SDS011;10182;52.896;6.496;2022-09-28T02:01:44;24.40;;;19.40;;
20042;SDS011;10182;52.896;6.496;2022-09-28T02:06:52;30.40;;;23.27;;
20042;SDS011;10182;52.896;6.496;2022-09-28T02:11:58;30.20;;;23.70;;
20042;SDS011;10182;52.896;6.496;2022-09-28T02:17:04;35.87;;;24.53;;
20042;SDS011;10182;52.896;6.496;2022-09-28T02:22:08;34.40;;;24.87;;
20042;SDS011;10182;52.896;6.496;2022-09-28T02:27:24;30.47;;;23.10;;
20042;SDS011;10182;52.896;6.496;2022-09-28T02:32:34;32.87;;;24.87;;
20042;SDS011;10182;52.896;6.496;2022-09-28T02:37:40;57.27;;;24.47;;
20042;SDS011;10182;52.896;6.496;2022-09-28T02:42:44;50.53;;;25.80;;
20042;SDS011;10182;52.896;6.496;2022-09-28T02:47:58;36.03;;;24.93;;
20042;SDS011;10182;52.896;6.496;2022-09-28T02:53:15;50.47;;;27.43;;
20042;SDS011;10182;52.896;6.496;2022-09-28T02:58:33;37.20;;;26.47;;
20042;SDS011;10182;52.896;6.496;2022-09-28T03:03:43;45.67;;;26.13;;
20042;SDS011;10182;52.896;6.496;2022-09-28T03:08:50;39.73;;;24.70;;
20042;SDS011;10182;52.896;6.496;2022-09-28T03:13:57;35.90;;;23.87;;
20042;SDS011;10182;52.896;6.496;2022-09-28T03:19:01;42.57;;;26.13;;
20042;SDS011;10182;52.896;6.496;2022-09-28T03:24:03;56.20;;;27.60;;
20042;SDS011;10182;52.896;6.496;2022-09-28T03:29:05;37.47;;;26.63;;
20042;SDS011;10182;52.896;6.496;2022-09-28T03:34:08;46.03;;;24.03;;
20042;SDS011;10182;52.896;6.496;2022-09-28T03:39:10;55.93;;;26.63;;
20042;SDS011;10182;52.896;6.496;2022-09-28T03:44:11;51.30;;;24.83;;
20042;SDS011;10182;52.896;6.496;2022-09-28T03:49:14;68.57;;;26.33;;
20042;SDS011;10182;52.896;6.496;2022-09-28T03:54:16;50.70;;;24.30;;
20042;SDS011;10182;52.896;6.496;2022-09-28T03:59:18;84.93;;;26.63;;
20042;SDS011;10182;52.896;6.496;2022-09-28T04:04:21;80.67;;;26.63;;
20042;SDS011;10182;52.896;6.496;2022-09-28T04:09:23;81.63;;;26.23;;
20042;SDS011;10182;52.896;6.496;2022-09-28T04:14:24;109.97;;;28.50;;
20042;SDS011;10182;52.896;6.496;2022-09-28T04:19:27;116.87;;;27.80;;
20042;SDS011;10182;52.896;6.496;2022-09-28T04:24:29;94.60;;;24.73;;
20042;SDS011;10182;52.896;6.496;2022-09-28T04:29:31;96.87;;;24.87;;
20042;SDS011;10182;52.896;6.496;2022-09-28T04:34:34;40.33;;;21.83;;
20042;SDS011;10182;52.896;6.496;2022-09-28T04:39:35;154.73;;;27.43;;
20042;SDS011;10182;52.896;6.496;2022-09-28T04:44:37;93.27;;;24.57;;
20042;SDS011;10182;52.896;6.496;2022-09-28T04:49:40;119.37;;;26.10;;
20042;SDS011;10182;52.896;6.496;2022-09-28T04:54:41;130.00;;;26.23;;
20042;SDS011;10182;52.896;6.496;2022-09-28T04:59:43;186.03;;;26.80;;
20042;SDS011;10182;52.896;6.496;2022-09-28T05:04:46;97.53;;;23.80;;
20042;SDS011;10182;52.896;6.496;2022-09-28T05:09:48;139.57;;;26.70;;
20042;SDS011;10182;52.896;6.496;2022-09-28T05:14:49;83.10;;;23.43;;
20042;SDS011;10182;52.896;6.496;2022-09-28T05:19:52;103.43;;;24.03;;
20042;SDS011;10182;52.896;6.496;2022-09-28T05:24:54;131.50;;;27.30;;
20042;SDS011;10182;52.896;6.496;2022-09-28T05:29:57;98.33;;;26.20;;
20042;SDS011;10182;52.896;6.496;2022-09-28T05:35:00;79.47;;;27.13;;
20042;SDS011;10182;52.896;6.496;2022-09-28T05:40:05;48.30;;;24.60;;
20042;SDS011;10182;52.896;6.496;2022-09-28T05:45:08;52.60;;;26.10;;
20042;SDS011;10182;52.896;6.496;2022-09-28T05:50:11;61.07;;;26.93;;
20042;SDS011;10182;52.896;6.496;2022-09-28T05:55:15;54.87;;;25.27;;
20042;SDS011;10182;52.896;6.496;2022-09-28T06:00:16;55.13;;;26.10;;
20042;SDS011;10182;52.896;6.496;2022-09-28T06:05:20;39.50;;;26.97;;
20042;SDS011;10182;52.896;6.496;2022-09-28T06:10:21;38.73;;;26.33;;
20042;SDS011;10182;52.896;6.496;2022-09-28T06:15:24;62.13;;;29.07;;
20042;SDS011;10182;52.896;6.496;2022-09-28T06:20:30;58.87;;;29.80;;
20042;SDS011;10182;52.896;6.496;2022-09-28T06:25:34;56.33;;;28.73;;
20042;SDS011;10182;52.896;6.496;2022-09-28T06:30:35;107.10;;;29.57;;
20042;SDS011;10182;52.896;6.496;2022-09-28T06:35:39;109.60;;;28.53;;
20042;SDS011;10182;52.896;6.496;2022-09-28T06:40:41;49.30;;;26.70;;
20042;SDS011;10182;52.896;6.496;2022-09-28T06:45:43;36.13;;;24.97;;
20042;SDS011;10182;52.896;6.496;2022-09-28T06:50:51;42.13;;;26.10;;
20042;SDS011;10182;52.896;6.496;2022-09-28T06:55:53;109.90;;;28.87;;
20042;SDS011;10182;52.896;6.496;2022-09-28T07:00:57;72.03;;;27.20;;
20042;SDS011;10182;52.896;6.496;2022-09-28T07:06:00;60.10;;;25.30;;
20042;SDS011;10182;52.896;6.496;2022-09-28T07:11:04;57.13;;;25.83;;
20042;SDS011;10182;52.896;6.496;2022-09-28T07:16:07;47.90;;;25.30;;
20042;SDS011;10182;52.896;6.496;2022-09-28T07:21:10;40.73;;;24.33;;
20042;SDS011;10182;52.896;6.496;2022-09-28T07:26:12;37.57;;;24.93;;
20042;SDS011;10182;52.896;6.496;2022-09-28T07:31:15;31.03;;;22.30;;
20042;SDS011;10182;52.896;6.496;2022-09-28T07:36:18;36.80;;;25.47;;
20042;SDS011;10182;52.896;6.496;2022-09-28T07:41:20;39.73;;;23.63;;
20042;SDS011;10182;52.896;6.496;2022-09-28T07:46:31;34.13;;;23.53;;
20042;SDS011;10182;52.896;6.496;2022-09-28T07:51:35;30.53;;;21.50;;
20042;SDS011;10182;52.896;6.496;2022-09-28T07:56:37;29.63;;;21.10;;
20042;SDS011;10182;52.896;6.496;2022-09-28T08:01:38;25.60;;;18.23;;
20042;SDS011;10182;52.896;6.496;2022-09-28T08:06:41;26.43;;;18.97;;
20042;SDS011;10182;52.896;6.496;2022-09-28T08:11:44;24.60;;;18.10;;
20042;SDS011;10182;52.896;6.496;2022-09-28T08:16:45;24.20;;;18.30;;
20042;SDS011;10182;52.896;6.496;2022-09-28T08:21:48;21.97;;;16.43;;
20042;SDS011;10182;52.896;6.496;2022-09-28T08:26:50;18.30;;;15.33;;
20042;SDS011;10182;52.896;6.496;2022-09-28T08:31:53;18.87;;;15.00;;
20042;SDS011;10182;52.896;6.496;2022-09-28T08:36:56;16.97;;;14.67;;
20042;SDS011;10182;52.896;6.496;2022-09-28T08:42:02;16.90;;;13.73;;
20042;SDS011;10182;52.896;6.496;2022-09-28T08:47:17;16.47;;;13.30;;
20042;SDS011;10182;52.896;6.496;2022-09-28T08:52:41;18.93;;;13.87;;
20042;SDS011;10182;52.896;6.496;2022-09-28T08:57:47;17.70;;;13.03;;
20042;SDS011;10182;52.896;6.496;2022-09-28T09:02:56;13.70;;;11.43;;
20042;SDS011;10182;52.896;6.496;2022-09-28T09:08:02;12.87;;;11.13;;
20042;SDS011;10182;52.896;6.496;2022-09-28T09:13:31;15.17;;;11.37;;
20042;SDS011;10182;52.896;6.496;2022-09-28T09:18:47;12.83;;;10.30;;
20042;SDS011;10182;52.896;6.496;2022-09-28T09:23:58;11.93;;;9.73;;
20042;SDS011;10182;52.896;6.496;2022-09-28T09:29:24;10.47;;;9.37;;
20042;SDS011;10182;52.896;6.496;2022-09-28T09:40:14;8.13;;;7.20;;
20042;SDS011;10182;52.896;6.496;2022-09-28T09:45:30;8.93;;;7.40;;
20042;SDS011;10182;52.896;6.496;2022-09-28T09:50:44;8.23;;;7.37;;
20042;SDS011;10182;52.896;6.496;2022-09-28T09:55:51;9.03;;;6.50;;
20042;SDS011;10182;52.896;6.496;2022-09-28T10:01:04;7.50;;;5.90;;
20042;SDS011;10182;52.896;6.496;2022-09-28T10:06:09;8.07;;;6.07;;
20042;SDS011;10182;52.896;6.496;2022-09-28T10:11:14;6.33;;;4.83;;
20042;SDS011;10182;52.896;6.496;2022-09-28T10:16:18;9.77;;;6.33;;
20042;SDS011;10182;52.896;6.496;2022-09-28T10:21:20;9.53;;;4.27;;
20042;SDS011;10182;52.896;6.496;2022-09-28T10:26:26;6.73;;;2.80;;
20042;SDS011;10182;52.896;6.496;2022-09-28T10:31:36;4.83;;;3.20;;
20042;SDS011;10182;52.896;6.496;2022-09-28T10:36:44;2.57;;;2.27;;
20042;SDS011;10182;52.896;6.496;2022-09-28T10:41:51;4.43;;;2.67;;
20042;SDS011;10182;52.896;6.496;2022-09-28T10:46:54;3.10;;;2.20;;
20042;SDS011;10182;52.896;6.496;2022-09-28T10:51:57;2.60;;;2.20;;
20042;SDS011;10182;52.896;6.496;2022-09-28T10:57:00;3.97;;;2.20;;
20042;SDS011;10182;52.896;6.496;2022-09-28T11:02:02;4.27;;;1.90;;
20042;SDS011;10182;52.896;6.496;2022-09-28T11:07:23;2.10;;;1.57;;
20042;SDS011;10182;52.896;6.496;2022-09-28T11:12:31;2.23;;;1.50;;
20042;SDS011;10182;52.896;6.496;2022-09-28T11:17:37;2.43;;;1.50;;
20042;SDS011;10182;52.896;6.496;2022-09-28T11:22:41;5.63;;;1.83;;
20042;SDS011;10182;52.896;6.496;2022-09-28T11:27:53;1.73;;;1.63;;
20042;SDS011;10182;52.896;6.496;2022-09-28T11:32:59;9.77;;;1.93;;
20042;SDS011;10182;52.896;6.496;2022-09-28T11:38:10;1.53;;;1.30;;
20042;SDS011;10182;52.896;6.496;2022-09-28T11:43:30;3.53;;;1.40;;
20042;SDS011;10182;52.896;6.496;2022-09-28T11:48:46;2.40;;;1.50;;
20042;SDS011;10182;52.896;6.496;2022-09-28T11:53:52;1.40;;;1.30;;
20042;SDS011;10182;52.896;6.496;2022-09-28T11:59:02;2.80;;;1.43;;
20042;SDS011;10182;52.896;6.496;2022-09-28T12:04:08;2.60;;;1.10;;
20042;SDS011;10182;52.896;6.496;2022-09-28T12:09:14;3.67;;;1.10;;
20042;SDS011;10182;52.896;6.496;2022-09-28T12:14:24;2.03;;;1.10;;
20042;SDS011;10182;52.896;6.496;2022-09-28T12:19:30;3.47;;;1.40;;
20042;SDS011;10182;52.896;6.496;2022-09-28T12:24:37;3.83;;;1.10;;
20042;SDS011;10182;52.896;6.496;2022-09-28T12:29:44;1.57;;;1.20;;
20042;SDS011;10182;52.896;6.496;2022-09-28T12:34:50;1.20;;;0.87;;
20042;SDS011;10182;52.896;6.496;2022-09-28T12:39:55;1.40;;;0.63;;
20042;SDS011;10182;52.896;6.496;2022-09-28T12:45:36;2.60;;;0.70;;
20042;SDS011;10182;52.896;6.496;2022-09-28T12:50:56;1.63;;;0.70;;
20042;SDS011;10182;52.896;6.496;2022-09-28T12:56:10;0.80;;;0.50;;
20042;SDS011;10182;52.896;6.496;2022-09-28T13:06:55;0.73;;;0.53;;
20042;SDS011;10182;52.896;6.496;2022-09-28T13:12:04;3.67;;;0.80;;
20042;SDS011;10182;52.896;6.496;2022-09-28T13:17:17;2.43;;;0.50;;
20042;SDS011;10182;52.896;6.496;2022-09-28T13:22:28;0.40;;;0.40;;
20042;SDS011;10182;52.896;6.496;2022-09-28T13:27:39;0.33;;;0.10;;
20042;SDS011;10182;52.896;6.496;2022-09-28T13:32:47;0.60;;;0.40;;
20042;SDS011;10182;52.896;6.496;2022-09-28T13:43:26;4.43;;;1.00;;
20042;SDS011;10182;52.896;6.496;2022-09-28T13:48:35;2.13;;;0.90;;
20042;SDS011;10182;52.896;6.496;2022-09-28T13:59:32;2.10;;;0.80;;
20042;SDS011;10182;52.896;6.496;2022-09-28T14:04:55;0.80;;;0.50;;
20042;SDS011;10182;52.896;6.496;2022-09-28T14:10:13;1.17;;;0.67;;
20042;SDS011;10182;52.896;6.496;2022-09-28T14:20:48;1.30;;;0.97;;
20042;SDS011;10182;52.896;6.496;2022-09-28T14:26:11;1.00;;;0.83;;
20042;SDS011;10182;52.896;6.496;2022-09-28T14:31:27;3.90;;;1.10;;
20042;SDS011;10182;52.896;6.496;2022-09-28T14:36:33;2.27;;;1.23;;
20042;SDS011;10182;52.896;6.496;2022-09-28T14:41:59;3.03;;;1.83;;
20042;SDS011;10182;52.896;6.496;2022-09-28T14:47:23;0.83;;;0.83;;
20042;SDS011;10182;52.896;6.496;2022-09-28T14:52:49;1.27;;;1.00;;
20042;SDS011;10182;52.896;6.496;2022-09-28T14:57:53;1.27;;;0.93;;
20042;SDS011;10182;52.896;6.496;2022-09-28T15:03:01;1.73;;;0.97;;
20042;SDS011;10182;52.896;6.496;2022-09-28T15:08:07;3.50;;;0.70;;
20042;SDS011;10182;52.896;6.496;2022-09-28T15:13:16;1.53;;;1.13;;
20042;SDS011;10182;52.896;6.496;2022-09-28T15:18:29;1.10;;;0.60;;
20042;SDS011;10182;52.896;6.496;2022-09-28T15:23:56;1.57;;;0.60;;
20042;SDS011;10182;52.896;6.496;2022-09-28T15:28:58;0.37;;;0.37;;
20042;SDS011;10182;52.896;6.496;2022-09-28T15:34:03;1.00;;;0.67;;
20042;SDS011;10182;52.896;6.496;2022-09-28T15:39:24;1.10;;;0.40;;
20042;SDS011;10182;52.896;6.496;2022-09-28T15:44:31;1.03;;;0.90;;
20042;SDS011;10182;52.896;6.496;2022-09-28T15:49:37;1.50;;;0.80;;
20042;SDS011;10182;52.896;6.496;2022-09-28T15:54:42;0.50;;;0.37;;
20042;SDS011;10182;52.896;6.496;2022-09-28T15:59:45;1.23;;;0.23;;
20042;SDS011;10182;52.896;6.496;2022-09-28T16:04:56;0.50;;;0.30;;
20042;SDS011;10182;52.896;6.496;2022-09-28T16:10:26;3.60;;;2.47;;
20042;SDS011;10182;52.896;6.496;2022-09-28T16:15:30;1.70;;;1.33;;
20042;SDS011;10182;52.896;6.496;2022-09-28T16:20:34;1.53;;;1.10;;
20042;SDS011;10182;52.896;6.496;2022-09-28T16:25:39;1.90;;;1.20;;
20042;SDS011;10182;52.896;6.496;2022-09-28T16:31:00;1.40;;;0.90;;
20042;SDS011;10182;52.896;6.496;2022-09-28T16:36:04;2.83;;;2.63;;
20042;SDS011;10182;52.896;6.496;2022-09-28T16:41:14;1.60;;;1.20;;
20042;SDS011;10182;52.896;6.496;2022-09-28T16:46:19;1.87;;;1.10;;
20042;SDS011;10182;52.896;6.496;2022-09-28T16:51:28;1.40;;;1.30;;
20042;SDS011;10182;52.896;6.496;2022-09-28T16:56:31;1.50;;;1.40;;
20042;SDS011;10182;52.896;6.496;2022-09-28T17:01:33;1.80;;;1.70;;
20042;SDS011;10182;52.896;6.496;2022-09-28T17:06:41;5.53;;;5.03;;
20042;SDS011;10182;52.896;6.496;2022-09-28T17:11:44;4.97;;;4.17;;
20042;SDS011;10182;52.896;6.496;2022-09-28T17:16:46;4.23;;;3.90;;
20042;SDS011;10182;52.896;6.496;2022-09-28T17:21:52;8.17;;;6.00;;
20042;SDS011;10182;52.896;6.496;2022-09-28T17:26:55;9.73;;;7.23;;
20042;SDS011;10182;52.896;6.496;2022-09-28T17:31:59;8.47;;;7.53;;
20042;SDS011;10182;52.896;6.496;2022-09-28T17:37:01;6.93;;;4.47;;
20042;SDS011;10182;52.896;6.496;2022-09-28T17:42:05;13.33;;;11.37;;
20042;SDS011;10182;52.896;6.496;2022-09-28T17:47:06;11.60;;;10.53;;
20042;SDS011;10182;52.896;6.496;2022-09-28T17:52:09;8.87;;;7.93;;
20042;SDS011;10182;52.896;6.496;2022-09-28T17:57:12;17.10;;;11.03;;
20042;SDS011;10182;52.896;6.496;2022-09-28T18:02:13;26.03;;;16.33;;
20042;SDS011;10182;52.896;6.496;2022-09-28T18:07:15;12.83;;;9.73;;
20042;SDS011;10182;52.896;6.496;2022-09-28T18:12:18;21.10;;;17.63;;
20042;SDS011;10182;52.896;6.496;2022-09-28T18:17:20;48.00;;;27.47;;
20042;SDS011;10182;52.896;6.496;2022-09-28T18:22:22;21.73;;;13.87;;
20042;SDS011;10182;52.896;6.496;2022-09-28T18:27:25;35.90;;;19.67;;
20042;SDS011;10182;52.896;6.496;2022-09-28T18:32:28;15.53;;;8.90;;
20042;SDS011;10182;52.896;6.496;2022-09-28T18:37:30;6.47;;;5.87;;
20042;SDS011;10182;52.896;6.496;2022-09-28T18:42:37;14.93;;;11.03;;
20042;SDS011;10182;52.896;6.496;2022-09-28T18:47:39;18.63;;;12.83;;
20042;SDS011;10182;52.896;6.496;2022-09-28T18:52:41;12.73;;;9.80;;
20042;SDS011;10182;52.896;6.496;2022-09-28T18:57:45;7.50;;;6.70;;
20042;SDS011;10182;52.896;6.496;2022-09-28T19:02:47;12.17;;;10.17;;
20042;SDS011;10182;52.896;6.496;2022-09-28T19:07:49;10.93;;;9.27;;
20042;SDS011;10182;52.896;6.496;2022-09-28T19:12:52;12.30;;;11.00;;
20042;SDS011;10182;52.896;6.496;2022-09-28T19:17:54;11.17;;;9.53;;
20042;SDS011;10182;52.896;6.496;2022-09-28T19:22:56;14.53;;;12.30;;
20042;SDS011;10182;52.896;6.496;2022-09-28T19:27:59;18.37;;;13.87;;
20042;SDS011;10182;52.896;6.496;2022-09-28T19:33:01;17.47;;;12.13;;
20042;SDS011;10182;52.896;6.496;2022-09-28T19:38:03;11.77;;;9.73;;
20042;SDS011;10182;52.896;6.496;2022-09-28T19:43:06;11.23;;;8.57;;
20042;SDS011;10182;52.896;6.496;2022-09-28T19:48:11;11.90;;;9.73;;
20042;SDS011;10182;52.896;6.496;2022-09-28T19:53:12;12.70;;;11.37;;
20042;SDS011;10182;52.896;6.496;2022-09-28T19:58:15;13.63;;;8.97;;
20042;SDS011;10182;52.896;6.496;2022-09-28T20:03:17;9.70;;;8.70;;
20042;SDS011;10182;52.896;6.496;2022-09-28T20:08:19;9.10;;;8.20;;
20042;SDS011;10182;52.896;6.496;2022-09-28T20:13:28;17.93;;;16.33;;
20042;SDS011;10182;52.896;6.496;2022-09-28T20:18:32;16.53;;;14.93;;
20042;SDS011;10182;52.896;6.496;2022-09-28T20:23:34;15.03;;;13.53;;
20042;SDS011;10182;52.896;6.496;2022-09-28T20:28:37;15.33;;;13.43;;
20042;SDS011;10182;52.896;6.496;2022-09-28T20:33:39;14.60;;;13.13;;
20042;SDS011;10182;52.896;6.496;2022-09-28T20:38:42;14.33;;;13.00;;
20042;SDS011;10182;52.896;6.496;2022-09-28T20:43:49;12.50;;;11.17;;
20042;SDS011;10182;52.896;6.496;2022-09-28T20:48:51;11.50;;;10.40;;
20042;SDS011;10182;52.896;6.496;2022-09-28T20:53:55;11.03;;;9.57;;
20042;SDS011;10182;52.896;6.496;2022-09-28T20:58:59;9.73;;;7.30;;
20042;SDS011;10182;52.896;6.496;2022-09-28T21:04:01;7.80;;;6.63;;
20042;SDS011;10182;52.896;6.496;2022-09-28T21:09:05;8.03;;;7.00;;
20042;SDS011;10182;52.896;6.496;2022-09-28T21:14:09;10.27;;;8.47;;
20042;SDS011;10182;52.896;6.496;2022-09-28T21:19:12;8.53;;;6.80;;
20042;SDS011;10182;52.896;6.496;2022-09-28T21:24:13;8.93;;;6.80;;
20042;SDS011;10182;52.896;6.496;2022-09-28T21:29:16;8.57;;;6.83;;
20042;SDS011;10182;52.896;6.496;2022-09-28T21:34:19;9.57;;;6.67;;
20042;SDS011;10182;52.896;6.496;2022-09-28T21:39:21;8.07;;;6.87;;
20042;SDS011;10182;52.896;6.496;2022-09-28T21:44:24;11.60;;;8.07;;
20042;SDS011;10182;52.896;6.496;2022-09-28T21:49:26;11.13;;;8.20;;
20042;SDS011;10182;52.896;6.496;2022-09-28T21:54:27;9.23;;;7.13;;
20042;SDS011;10182;52.896;6.496;2022-09-28T21:59:30;7.10;;;6.40;;
20042;SDS011;10182;52.896;6.496;2022-09-28T22:04:32;8.00;;;6.60;;
20042;SDS011;10182;52.896;6.496;2022-09-28T22:09:33;7.77;;;6.97;;
20042;SDS011;10182;52.896;6.496;2022-09-28T22:14:36;7.97;;;6.63;;
20042;SDS011;10182;52.896;6.496;2022-09-28T22:19:38;8.03;;;7.23;;
20042;SDS011;10182;52.896;6.496;2022-09-28T22:24:40;9.60;;;8.47;;
20042;SDS011;10182;52.896;6.496;2022-09-28T22:29:43;7.77;;;7.07;;
20042;SDS011;10182;52.896;6.496;2022-09-28T22:34:45;8.57;;;7.77;;
20042;SDS011;10182;52.896;6.496;2022-09-28T22:39:47;8.27;;;7.40;;
20042;SDS011;10182;52.896;6.496;2022-09-28T22:44:50;7.40;;;6.70;;
20042;SDS011;10182;52.896;6.496;2022-09-28T22:49:51;11.37;;;6.80;;
20042;SDS011;10182;52.896;6.496;2022-09-28T22:54:53;8.03;;;7.23;;
20042;SDS011;10182;52.896;6.496;2022-09-28T22:59:56;7.67;;;6.97;;
20042;SDS011;10182;52.896;6.496;2022-09-28T23:04:57;8.00;;;7.20;;
20042;SDS011;10182;52.896;6.496;2022-09-28T23:09:59;8.17;;;6.87;;
20042;SDS011;10182;52.896;6.496;2022-09-28T23:15:02;8.93;;;7.90;;
20042;SDS011;10182;52.896;6.496;2022-09-28T23:20:05;8.33;;;7.53;;
20042;SDS011;10182;52.896;6.496;2022-09-28T23:25:07;7.73;;;7.03;;
20042;SDS011;10182;52.896;6.496;2022-09-28T23:30:10;9.27;;;8.37;;
20042;SDS011;10182;52.896;6.496;2022-09-28T23:35:12;9.17;;;8.20;;
20042;SDS011;10182;52.896;6.496;2022-09-28T23:40:14;9.77;;;8.70;;
20042;SDS011;10182;52.896;6.496;2022-09-28T23:45:17;9.40;;;8.60;;
20042;SDS011;10182;52.896;6.496;2022-09-28T23:50:19;10.40;;;9.50;;
20042;SDS011;10182;52.896;6.496;2022-09-28T23:55:21;10.47;;;9.37;;
